Mayoworth, Wyoming
Current Conditions -  °F | °C
As of 3:53 PM on Sunday 21 Dec 2014 (Local Time) from KBYG Reporting Station
Broken Clouds Broken Clouds  
Wind Chill: 35°   Ceiling: 9500
Heat Index: 45°   Visibility: 10mi
Dew Point: 18°   Wind: 31mph
Humidity: 34%   Direction: 300°WNW
Pressure: 29.5"   Gusts: 48mph
Location:  43.8063°N, 106.549°W
Report Text: KBYG 212253Z AUTO 30027G42KT 10SM SCT070 BKN095 07/M08 A2950 RMK AO2 PK WND 28048/2203 WSHFT 2140 RAE2157 SLP985 P0000 T00721078 $
Loading
Personal Weather Stations






























Interactive Weather Map New forecast layout! Learn more

10-Day Weather Forecast

Advertisements
Track Severe Weather on mobile